sensor_id;sensor_type;location;lat;lon;timestamp;P1;durP1;ratioP1;P2;durP2;ratioP2
44750;SDS011;30477;48.224;11.470;2022-10-30T00:00:38;16.50;;;9.05;;
44750;SDS011;30477;48.224;11.470;2022-10-30T00:05:29;20.65;;;9.13;;
44750;SDS011;30477;48.224;11.470;2022-10-30T00:07:55;21.60;;;9.27;;
44750;SDS011;30477;48.224;11.470;2022-10-30T00:12:46;19.80;;;9.20;;
44750;SDS011;30477;48.224;11.470;2022-10-30T00:15:12;18.67;;;9.40;;
44750;SDS011;30477;48.224;11.470;2022-10-30T00:17:38;22.02;;;9.65;;
44750;SDS011;30477;48.224;11.470;2022-10-30T00:20:03;18.70;;;9.33;;
44750;SDS011;30477;48.224;11.470;2022-10-30T00:22:29;21.83;;;9.68;;
44750;SDS011;30477;48.224;11.470;2022-10-30T00:24:54;20.60;;;9.67;;
44750;SDS011;30477;48.224;11.470;2022-10-30T00:27:20;19.13;;;9.23;;
44750;SDS011;30477;48.224;11.470;2022-10-30T00:29:45;18.40;;;8.33;;
44750;SDS011;30477;48.224;11.470;2022-10-30T00:32:10;19.73;;;8.83;;
44750;SDS011;30477;48.224;11.470;2022-10-30T00:34:36;23.23;;;9.23;;
44750;SDS011;30477;48.224;11.470;2022-10-30T00:37:01;17.00;;;7.97;;
44750;SDS011;30477;48.224;11.470;2022-10-30T00:39:26;19.03;;;8.77;;
44750;SDS011;30477;48.224;11.470;2022-10-30T00:41:52;14.63;;;8.67;;
44750;SDS011;30477;48.224;11.470;2022-10-30T00:47:11;18.98;;;9.15;;
44750;SDS011;30477;48.224;11.470;2022-10-30T00:49:54;17.25;;;9.25;;
44750;SDS011;30477;48.224;11.470;2022-10-30T00:52:24;18.58;;;8.82;;
44750;SDS011;30477;48.224;11.470;2022-10-30T00:54:52;16.77;;;8.60;;
44750;SDS011;30477;48.224;11.470;2022-10-30T00:57:19;15.85;;;9.05;;
44750;SDS011;30477;48.224;11.470;2022-10-30T00:59:45;19.33;;;9.03;;
44750;SDS011;30477;48.224;11.470;2022-10-30T01:02:11;14.63;;;9.10;;
44750;SDS011;30477;48.224;11.470;2022-10-30T01:04:36;16.70;;;8.63;;
44750;SDS011;30477;48.224;11.470;2022-10-30T01:07:08;19.45;;;9.35;;
44750;SDS011;30477;48.224;11.470;2022-10-30T01:09:36;19.15;;;8.80;;
44750;SDS011;30477;48.224;11.470;2022-10-30T01:12:03;15.25;;;8.93;;
44750;SDS011;30477;48.224;11.470;2022-10-30T01:14:29;15.10;;;8.90;;
44750;SDS011;30477;48.224;11.470;2022-10-30T01:17:21;15.13;;;7.50;;
44750;SDS011;30477;48.224;11.470;2022-10-30T01:34:04;15.57;;;8.17;;
44750;SDS011;30477;48.224;11.470;2022-10-30T01:36:44;17.15;;;8.02;;
44750;SDS011;30477;48.224;11.470;2022-10-30T01:39:37;20.25;;;8.98;;
44750;SDS011;30477;48.224;11.470;2022-10-30T01:42:49;18.98;;;7.60;;
44750;SDS011;30477;48.224;11.470;2022-10-30T01:45:07;17.52;;;8.50;;
44750;SDS011;30477;48.224;11.470;2022-10-30T01:58:54;14.68;;;7.97;;
44750;SDS011;30477;48.224;11.470;2022-10-30T02:01:21;19.15;;;8.70;;
44750;SDS011;30477;48.224;11.470;2022-10-30T02:03:47;13.70;;;8.35;;
44750;SDS011;30477;48.224;11.470;2022-10-30T02:06:13;13.13;;;8.05;;
44750;SDS011;30477;48.224;11.470;2022-10-30T02:08:39;17.03;;;8.67;;
44750;SDS011;30477;48.224;11.470;2022-10-30T02:11:04;16.73;;;8.40;;
44750;SDS011;30477;48.224;11.470;2022-10-30T02:13:30;22.77;;;8.57;;
44750;SDS011;30477;48.224;11.470;2022-10-30T02:15:56;19.55;;;8.45;;
44750;SDS011;30477;48.224;11.470;2022-10-30T02:18:23;16.63;;;8.00;;
44750;SDS011;30477;48.224;11.470;2022-10-30T02:20:49;17.27;;;8.57;;
44750;SDS011;30477;48.224;11.470;2022-10-30T02:23:14;19.10;;;9.47;;
44750;SDS011;30477;48.224;11.470;2022-10-30T02:25:43;19.50;;;8.30;;
44750;SDS011;30477;48.224;11.470;2022-10-30T02:28:09;16.60;;;9.02;;
44750;SDS011;30477;48.224;11.470;2022-10-30T02:30:34;14.93;;;9.67;;
44750;SDS011;30477;48.224;11.470;2022-10-30T02:33:00;17.83;;;9.63;;
44750;SDS011;30477;48.224;11.470;2022-10-30T02:35:25;20.23;;;9.10;;
44750;SDS011;30477;48.224;11.470;2022-10-30T02:37:50;15.10;;;8.50;;
44750;SDS011;30477;48.224;11.470;2022-10-30T02:40:16;17.97;;;9.03;;
44750;SDS011;30477;48.224;11.470;2022-10-30T02:42:41;24.27;;;9.90;;
44750;SDS011;30477;48.224;11.470;2022-10-30T02:45:07;18.70;;;9.50;;
44750;SDS011;30477;48.224;11.470;2022-10-30T02:47:32;20.20;;;10.10;;
44750;SDS011;30477;48.224;11.470;2022-10-30T02:49:58;19.43;;;10.20;;
44750;SDS011;30477;48.224;11.470;2022-10-30T02:52:23;18.90;;;9.07;;
44750;SDS011;30477;48.224;11.470;2022-10-30T02:54:48;17.93;;;9.70;;
44750;SDS011;30477;48.224;11.470;2022-10-30T02:57:14;18.90;;;8.50;;
44750;SDS011;30477;48.224;11.470;2022-10-30T02:59:39;15.43;;;8.47;;
44750;SDS011;30477;48.224;11.470;2022-10-30T03:02:04;15.60;;;8.00;;
44750;SDS011;30477;48.224;11.470;2022-10-30T03:04:30;16.33;;;7.97;;
44750;SDS011;30477;48.224;11.470;2022-10-30T03:06:55;14.77;;;7.50;;
44750;SDS011;30477;48.224;11.470;2022-10-30T03:09:20;13.03;;;8.33;;
44750;SDS011;30477;48.224;11.470;2022-10-30T03:11:46;17.67;;;8.53;;
44750;SDS011;30477;48.224;11.470;2022-10-30T03:14:11;15.47;;;8.57;;
44750;SDS011;30477;48.224;11.470;2022-10-30T03:16:37;17.67;;;8.27;;
44750;SDS011;30477;48.224;11.470;2022-10-30T03:19:02;20.20;;;8.40;;
44750;SDS011;30477;48.224;11.470;2022-10-30T03:21:28;17.58;;;8.70;;
44750;SDS011;30477;48.224;11.470;2022-10-30T03:23:54;19.17;;;10.17;;
44750;SDS011;30477;48.224;11.470;2022-10-30T03:28:45;20.98;;;10.07;;
44750;SDS011;30477;48.224;11.470;2022-10-30T03:31:12;18.90;;;9.07;;
44750;SDS011;30477;48.224;11.470;2022-10-30T03:33:39;21.08;;;8.50;;
44750;SDS011;30477;48.224;11.470;2022-10-30T03:36:05;15.63;;;9.15;;
44750;SDS011;30477;48.224;11.470;2022-10-30T03:38:32;18.15;;;9.43;;
44750;SDS011;30477;48.224;11.470;2022-10-30T03:40:58;14.77;;;8.55;;
44750;SDS011;30477;48.224;11.470;2022-10-30T03:43:23;18.42;;;9.20;;
44750;SDS011;30477;48.224;11.470;2022-10-30T03:45:50;20.97;;;9.13;;
44750;SDS011;30477;48.224;11.470;2022-10-30T03:48:17;14.93;;;8.88;;
44750;SDS011;30477;48.224;11.470;2022-10-30T03:50:43;18.50;;;8.80;;
44750;SDS011;30477;48.224;11.470;2022-10-30T03:53:09;20.57;;;9.33;;
44750;SDS011;30477;48.224;11.470;2022-10-30T03:55:34;20.37;;;9.27;;
44750;SDS011;30477;48.224;11.470;2022-10-30T03:58:00;18.03;;;9.53;;
44750;SDS011;30477;48.224;11.470;2022-10-30T04:00:25;21.00;;;8.97;;
44750;SDS011;30477;48.224;11.470;2022-10-30T04:02:50;17.63;;;9.37;;
44750;SDS011;30477;48.224;11.470;2022-10-30T04:05:17;18.73;;;8.43;;
44750;SDS011;30477;48.224;11.470;2022-10-30T04:07:45;17.92;;;8.57;;
44750;SDS011;30477;48.224;11.470;2022-10-30T04:10:11;15.63;;;8.68;;
44750;SDS011;30477;48.224;11.470;2022-10-30T04:12:38;13.45;;;7.93;;
44750;SDS011;30477;48.224;11.470;2022-10-30T04:15:04;22.20;;;10.10;;
44750;SDS011;30477;48.224;11.470;2022-10-30T04:17:31;17.13;;;9.27;;
44750;SDS011;30477;48.224;11.470;2022-10-30T04:19:57;23.10;;;9.48;;
44750;SDS011;30477;48.224;11.470;2022-10-30T04:22:22;17.47;;;9.90;;
44750;SDS011;30477;48.224;11.470;2022-10-30T04:24:48;18.93;;;9.63;;
44750;SDS011;30477;48.224;11.470;2022-10-30T04:27:14;18.27;;;8.97;;
44750;SDS011;30477;48.224;11.470;2022-10-30T04:29:39;16.77;;;9.93;;
44750;SDS011;30477;48.224;11.470;2022-10-30T04:34:31;21.15;;;9.10;;
44750;SDS011;30477;48.224;11.470;2022-10-30T04:36:57;18.60;;;8.70;;
44750;SDS011;30477;48.224;11.470;2022-10-30T04:39:22;19.83;;;9.83;;
44750;SDS011;30477;48.224;11.470;2022-10-30T04:41:47;20.50;;;10.00;;
44750;SDS011;30477;48.224;11.470;2022-10-30T04:44:13;21.70;;;9.13;;
44750;SDS011;30477;48.224;11.470;2022-10-30T04:46:38;16.13;;;9.67;;
44750;SDS011;30477;48.224;11.470;2022-10-30T04:49:03;19.33;;;8.87;;
44750;SDS011;30477;48.224;11.470;2022-10-30T04:51:29;16.63;;;8.93;;
44750;SDS011;30477;48.224;11.470;2022-10-30T04:53:54;18.43;;;9.10;;
44750;SDS011;30477;48.224;11.470;2022-10-30T04:56:19;15.80;;;9.03;;
44750;SDS011;30477;48.224;11.470;2022-10-30T04:58:45;20.27;;;9.77;;
44750;SDS011;30477;48.224;11.470;2022-10-30T05:01:10;17.77;;;9.13;;
44750;SDS011;30477;48.224;11.470;2022-10-30T05:03:36;19.13;;;8.77;;
44750;SDS011;30477;48.224;11.470;2022-10-30T05:06:02;18.67;;;9.17;;
44750;SDS011;30477;48.224;11.470;2022-10-30T05:08:30;19.90;;;9.98;;
44750;SDS011;30477;48.224;11.470;2022-10-30T05:10:56;19.58;;;9.45;;
44750;SDS011;30477;48.224;11.470;2022-10-30T05:13:22;20.17;;;9.57;;
44750;SDS011;30477;48.224;11.470;2022-10-30T05:15:47;18.07;;;9.33;;
44750;SDS011;30477;48.224;11.470;2022-10-30T05:18:13;16.17;;;9.17;;
44750;SDS011;30477;48.224;11.470;2022-10-30T05:20:38;16.77;;;8.93;;
44750;SDS011;30477;48.224;11.470;2022-10-30T05:23:04;19.43;;;9.33;;
44750;SDS011;30477;48.224;11.470;2022-10-30T05:25:29;16.90;;;9.32;;
44750;SDS011;30477;48.224;11.470;2022-10-30T05:27:58;16.73;;;9.30;;
44750;SDS011;30477;48.224;11.470;2022-10-30T05:30:28;14.27;;;8.73;;
44750;SDS011;30477;48.224;11.470;2022-10-30T05:33:02;15.20;;;8.25;;
44750;SDS011;30477;48.224;11.470;2022-10-30T05:35:29;12.68;;;8.13;;
44750;SDS011;30477;48.224;11.470;2022-10-30T05:37:56;17.35;;;8.10;;
44750;SDS011;30477;48.224;11.470;2022-10-30T05:40:22;15.67;;;8.23;;
44750;SDS011;30477;48.224;11.470;2022-10-30T05:42:47;15.73;;;8.10;;
44750;SDS011;30477;48.224;11.470;2022-10-30T05:45:13;21.27;;;8.57;;
44750;SDS011;30477;48.224;11.470;2022-10-30T05:47:39;16.02;;;8.75;;
44750;SDS011;30477;48.224;11.470;2022-10-30T05:50:05;18.57;;;9.50;;
44750;SDS011;30477;48.224;11.470;2022-10-30T05:52:31;15.65;;;9.15;;
44750;SDS011;30477;48.224;11.470;2022-10-30T05:54:56;19.57;;;9.23;;
44750;SDS011;30477;48.224;11.470;2022-10-30T05:57:21;17.93;;;9.23;;
44750;SDS011;30477;48.224;11.470;2022-10-30T05:59:47;20.10;;;10.30;;
44750;SDS011;30477;48.224;11.470;2022-10-30T06:02:12;20.93;;;9.50;;
44750;SDS011;30477;48.224;11.470;2022-10-30T06:04:37;21.00;;;8.87;;
44750;SDS011;30477;48.224;11.470;2022-10-30T06:07:03;24.60;;;10.07;;
44750;SDS011;30477;48.224;11.470;2022-10-30T06:09:28;14.23;;;9.47;;
44750;SDS011;30477;48.224;11.470;2022-10-30T06:11:54;20.17;;;9.97;;
44750;SDS011;30477;48.224;11.470;2022-10-30T06:14:20;17.50;;;8.93;;
44750;SDS011;30477;48.224;11.470;2022-10-30T06:16:45;18.83;;;8.57;;
44750;SDS011;30477;48.224;11.470;2022-10-30T06:19:11;20.45;;;9.10;;
44750;SDS011;30477;48.224;11.470;2022-10-30T06:21:36;19.90;;;10.57;;
44750;SDS011;30477;48.224;11.470;2022-10-30T06:24:01;21.57;;;8.77;;
44750;SDS011;30477;48.224;11.470;2022-10-30T06:26:27;18.47;;;7.87;;
44750;SDS011;30477;48.224;11.470;2022-10-30T06:28:52;15.77;;;7.13;;
44750;SDS011;30477;48.224;11.470;2022-10-30T06:31:17;17.93;;;7.07;;
44750;SDS011;30477;48.224;11.470;2022-10-30T06:33:43;16.80;;;7.70;;
44750;SDS011;30477;48.224;11.470;2022-10-30T06:36:08;20.50;;;8.10;;
44750;SDS011;30477;48.224;11.470;2022-10-30T06:38:33;15.60;;;7.53;;
44750;SDS011;30477;48.224;11.470;2022-10-30T06:40:59;15.07;;;6.80;;
44750;SDS011;30477;48.224;11.470;2022-10-30T06:43:24;17.70;;;7.87;;
44750;SDS011;30477;48.224;11.470;2022-10-30T06:45:49;14.13;;;6.90;;
44750;SDS011;30477;48.224;11.470;2022-10-30T06:48:15;17.97;;;8.00;;
44750;SDS011;30477;48.224;11.470;2022-10-30T06:50:40;19.47;;;8.00;;
44750;SDS011;30477;48.224;11.470;2022-10-30T06:53:05;15.67;;;7.83;;
44750;SDS011;30477;48.224;11.470;2022-10-30T06:55:31;19.40;;;7.97;;
44750;SDS011;30477;48.224;11.470;2022-10-30T06:57:56;19.37;;;7.30;;
44750;SDS011;30477;48.224;11.470;2022-10-30T07:00:22;17.97;;;7.50;;
44750;SDS011;30477;48.224;11.470;2022-10-30T07:02:57;13.73;;;6.47;;
44750;SDS011;30477;48.224;11.470;2022-10-30T07:05:23;21.00;;;6.70;;
44750;SDS011;30477;48.224;11.470;2022-10-30T07:07:49;15.23;;;7.33;;
44750;SDS011;30477;48.224;11.470;2022-10-30T07:10:14;18.50;;;7.03;;
44750;SDS011;30477;48.224;11.470;2022-10-30T07:12:39;18.87;;;6.60;;
44750;SDS011;30477;48.224;11.470;2022-10-30T07:15:05;15.47;;;6.20;;
44750;SDS011;30477;48.224;11.470;2022-10-30T07:17:30;14.97;;;7.20;;
44750;SDS011;30477;48.224;11.470;2022-10-30T07:19:55;20.17;;;8.20;;
44750;SDS011;30477;48.224;11.470;2022-10-30T07:22:21;14.67;;;7.57;;
44750;SDS011;30477;48.224;11.470;2022-10-30T07:24:46;18.40;;;6.70;;
44750;SDS011;30477;48.224;11.470;2022-10-30T07:27:11;15.40;;;6.40;;
44750;SDS011;30477;48.224;11.470;2022-10-30T07:29:37;14.67;;;5.50;;
44750;SDS011;30477;48.224;11.470;2022-10-30T07:32:02;19.43;;;6.70;;
44750;SDS011;30477;48.224;11.470;2022-10-30T07:34:28;19.17;;;6.60;;
44750;SDS011;30477;48.224;11.470;2022-10-30T07:36:53;18.50;;;5.67;;
44750;SDS011;30477;48.224;11.470;2022-10-30T07:39:18;16.93;;;5.47;;
44750;SDS011;30477;48.224;11.470;2022-10-30T07:41:44;13.47;;;5.23;;
44750;SDS011;30477;48.224;11.470;2022-10-30T07:44:09;17.67;;;5.83;;
44750;SDS011;30477;48.224;11.470;2022-10-30T07:46:34;21.83;;;6.23;;
44750;SDS011;30477;48.224;11.470;2022-10-30T07:48:59;11.47;;;5.87;;
44750;SDS011;30477;48.224;11.470;2022-10-30T07:51:25;12.33;;;6.23;;
44750;SDS011;30477;48.224;11.470;2022-10-30T07:53:50;18.73;;;5.57;;
44750;SDS011;30477;48.224;11.470;2022-10-30T07:56:16;17.07;;;6.20;;
44750;SDS011;30477;48.224;11.470;2022-10-30T07:58:41;16.77;;;6.50;;
44750;SDS011;30477;48.224;11.470;2022-10-30T08:01:06;14.43;;;6.00;;
44750;SDS011;30477;48.224;11.470;2022-10-30T08:03:32;18.13;;;6.23;;
44750;SDS011;30477;48.224;11.470;2022-10-30T08:05:57;18.67;;;5.93;;
44750;SDS011;30477;48.224;11.470;2022-10-30T08:08:22;15.97;;;5.67;;
44750;SDS011;30477;48.224;11.470;2022-10-30T08:10:47;19.80;;;5.87;;
44750;SDS011;30477;48.224;11.470;2022-10-30T08:13:13;16.63;;;6.30;;
44750;SDS011;30477;48.224;11.470;2022-10-30T08:15:39;13.82;;;5.38;;
44750;SDS011;30477;48.224;11.470;2022-10-30T08:18:06;12.18;;;5.40;;
44750;SDS011;30477;48.224;11.470;2022-10-30T08:20:32;14.87;;;5.73;;
44750;SDS011;30477;48.224;11.470;2022-10-30T08:22:57;15.70;;;5.43;;
44750;SDS011;30477;48.224;11.470;2022-10-30T08:25:23;17.00;;;5.50;;
44750;SDS011;30477;48.224;11.470;2022-10-30T08:27:58;18.45;;;5.75;;
44750;SDS011;30477;48.224;11.470;2022-10-30T08:30:26;19.40;;;5.75;;
44750;SDS011;30477;48.224;11.470;2022-10-30T08:33:00;15.00;;;5.40;;
44750;SDS011;30477;48.224;11.470;2022-10-30T08:35:27;13.45;;;5.30;;
44750;SDS011;30477;48.224;11.470;2022-10-30T08:37:56;16.55;;;4.97;;
44750;SDS011;30477;48.224;11.470;2022-10-30T08:40:22;16.48;;;5.80;;
44750;SDS011;30477;48.224;11.470;2022-10-30T08:42:49;19.90;;;5.80;;
44750;SDS011;30477;48.224;11.470;2022-10-30T08:45:15;14.63;;;6.18;;
44750;SDS011;30477;48.224;11.470;2022-10-30T08:47:41;14.90;;;5.63;;
44750;SDS011;30477;48.224;11.470;2022-10-30T08:50:06;12.43;;;5.73;;
44750;SDS011;30477;48.224;11.470;2022-10-30T08:52:32;19.02;;;7.78;;
44750;SDS011;30477;48.224;11.470;2022-10-30T08:54:57;22.10;;;8.30;;
44750;SDS011;30477;48.224;11.470;2022-10-30T08:57:22;17.27;;;7.13;;
44750;SDS011;30477;48.224;11.470;2022-10-30T08:59:48;21.20;;;6.47;;
44750;SDS011;30477;48.224;11.470;2022-10-30T09:02:13;15.27;;;5.43;;
44750;SDS011;30477;48.224;11.470;2022-10-30T09:04:38;17.30;;;6.23;;
44750;SDS011;30477;48.224;11.470;2022-10-30T09:07:04;19.97;;;6.17;;
44750;SDS011;30477;48.224;11.470;2022-10-30T09:09:29;21.73;;;5.43;;
44750;SDS011;30477;48.224;11.470;2022-10-30T09:11:54;15.67;;;5.37;;
44750;SDS011;30477;48.224;11.470;2022-10-30T09:14:19;18.60;;;6.10;;
44750;SDS011;30477;48.224;11.470;2022-10-30T09:16:45;18.27;;;5.87;;
44750;SDS011;30477;48.224;11.470;2022-10-30T09:19:10;13.50;;;5.73;;
44750;SDS011;30477;48.224;11.470;2022-10-30T09:21:35;12.30;;;5.57;;
44750;SDS011;30477;48.224;11.470;2022-10-30T09:24:01;19.13;;;6.87;;
44750;SDS011;30477;48.224;11.470;2022-10-30T09:26:26;16.97;;;6.20;;
44750;SDS011;30477;48.224;11.470;2022-10-30T09:28:53;17.98;;;6.25;;
44750;SDS011;30477;48.224;11.470;2022-10-30T09:31:18;17.03;;;5.83;;
44750;SDS011;30477;48.224;11.470;2022-10-30T09:33:43;13.80;;;5.47;;
44750;SDS011;30477;48.224;11.470;2022-10-30T09:36:09;14.53;;;5.70;;
44750;SDS011;30477;48.224;11.470;2022-10-30T09:38:34;15.30;;;5.73;;
44750;SDS011;30477;48.224;11.470;2022-10-30T09:46:25;10.40;;;5.75;;
44750;SDS011;30477;48.224;11.470;2022-10-30T09:49:14;17.65;;;6.60;;
44750;SDS011;30477;48.224;11.470;2022-10-30T09:54:15;16.83;;;6.47;;
44750;SDS011;30477;48.224;11.470;2022-10-30T09:57:09;15.43;;;5.25;;
44750;SDS011;30477;48.224;11.470;2022-10-30T10:00:07;13.48;;;5.45;;
44750;SDS011;30477;48.224;11.470;2022-10-30T10:05:27;15.30;;;5.65;;
44750;SDS011;30477;48.224;11.470;2022-10-30T10:08:00;15.70;;;5.90;;
44750;SDS011;30477;48.224;11.470;2022-10-30T10:13:11;17.40;;;5.88;;
44750;SDS011;30477;48.224;11.470;2022-10-30T10:15:51;16.83;;;6.00;;
44750;SDS011;30477;48.224;11.470;2022-10-30T10:18:24;20.88;;;6.28;;
44750;SDS011;30477;48.224;11.470;2022-10-30T10:20:56;20.75;;;5.97;;
44750;SDS011;30477;48.224;11.470;2022-10-30T10:23:29;19.42;;;5.43;;
44750;SDS011;30477;48.224;11.470;2022-10-30T10:26:03;17.60;;;4.88;;
44750;SDS011;30477;48.224;11.470;2022-10-30T10:36:48;22.50;;;5.75;;
44750;SDS011;30477;48.224;11.470;2022-10-30T10:39:32;15.13;;;5.05;;
44750;SDS011;30477;48.224;11.470;2022-10-30T10:50:36;15.02;;;4.70;;
44750;SDS011;30477;48.224;11.470;2022-10-30T10:53:25;18.85;;;4.97;;
44750;SDS011;30477;48.224;11.470;2022-10-30T10:55:56;17.42;;;5.20;;
44750;SDS011;30477;48.224;11.470;2022-10-30T10:58:58;17.63;;;4.75;;
44750;SDS011;30477;48.224;11.470;2022-10-30T11:01:21;15.93;;;4.50;;
44750;SDS011;30477;48.224;11.470;2022-10-30T11:03:57;14.82;;;4.15;;
44750;SDS011;30477;48.224;11.470;2022-10-30T11:06:27;15.55;;;4.68;;
44750;SDS011;30477;48.224;11.470;2022-10-30T11:11:46;7.03;;;3.85;;
44750;SDS011;30477;48.224;11.470;2022-10-30T11:14:16;17.70;;;5.15;;
44750;SDS011;30477;48.224;11.470;2022-10-30T11:16:50;15.32;;;4.80;;
44750;SDS011;30477;48.224;11.470;2022-10-30T11:19:29;17.88;;;4.75;;
44750;SDS011;30477;48.224;11.470;2022-10-30T11:21:55;20.38;;;4.22;;
44750;SDS011;30477;48.224;11.470;2022-10-30T11:24:32;15.32;;;4.32;;
44750;SDS011;30477;48.224;11.470;2022-10-30T11:29:53;11.10;;;4.38;;
44750;SDS011;30477;48.224;11.470;2022-10-30T11:32:23;17.48;;;4.25;;
44750;SDS011;30477;48.224;11.470;2022-10-30T11:37:33;17.63;;;4.20;;
44750;SDS011;30477;48.224;11.470;2022-10-30T11:40:00;22.17;;;4.85;;
44750;SDS011;30477;48.224;11.470;2022-10-30T11:42:31;15.15;;;4.38;;
44750;SDS011;30477;48.224;11.470;2022-10-30T11:44:58;15.27;;;4.45;;
44750;SDS011;30477;48.224;11.470;2022-10-30T11:47:34;15.88;;;4.47;;
44750;SDS011;30477;48.224;11.470;2022-10-30T11:50:03;15.35;;;4.20;;
44750;SDS011;30477;48.224;11.470;2022-10-30T11:52:35;12.02;;;3.90;;
44750;SDS011;30477;48.224;11.470;2022-10-30T11:57:51;19.00;;;4.75;;
44750;SDS011;30477;48.224;11.470;2022-10-30T12:02:51;13.25;;;3.85;;
44750;SDS011;30477;48.224;11.470;2022-10-30T12:07:53;14.38;;;4.25;;
44750;SDS011;30477;48.224;11.470;2022-10-30T12:10:46;11.85;;;4.03;;
44750;SDS011;30477;48.224;11.470;2022-10-30T12:13:18;17.25;;;4.22;;
44750;SDS011;30477;48.224;11.470;2022-10-30T12:15:46;14.70;;;4.20;;
44750;SDS011;30477;48.224;11.470;2022-10-30T12:18:46;15.32;;;4.15;;
44750;SDS011;30477;48.224;11.470;2022-10-30T12:21:05;18.30;;;4.50;;
44750;SDS011;30477;48.224;11.470;2022-10-30T12:23:31;17.00;;;4.20;;
44750;SDS011;30477;48.224;11.470;2022-10-30T12:28:25;21.40;;;4.07;;
44750;SDS011;30477;48.224;11.470;2022-10-30T12:30:57;12.45;;;3.80;;
44750;SDS011;30477;48.224;11.470;2022-10-30T12:33:49;14.85;;;4.25;;
44750;SDS011;30477;48.224;11.470;2022-10-30T12:36:23;17.77;;;4.57;;
44750;SDS011;30477;48.224;11.470;2022-10-30T12:39:09;50.47;;;15.48;;
44750;SDS011;30477;48.224;11.470;2022-10-30T12:41:44;37.67;;;11.88;;
44750;SDS011;30477;48.224;11.470;2022-10-30T12:44:17;22.80;;;7.65;;
44750;SDS011;30477;48.224;11.470;2022-10-30T12:46:52;18.08;;;5.80;;
44750;SDS011;30477;48.224;11.470;2022-10-30T12:52:40;21.35;;;4.32;;
44750;SDS011;30477;48.224;11.470;2022-10-30T12:55:16;10.75;;;4.00;;
44750;SDS011;30477;48.224;11.470;2022-10-30T12:57:48;12.90;;;4.43;;
44750;SDS011;30477;48.224;11.470;2022-10-30T13:00:51;13.70;;;4.20;;
44750;SDS011;30477;48.224;11.470;2022-10-30T13:03:33;13.85;;;4.00;;
44750;SDS011;30477;48.224;11.470;2022-10-30T13:06:09;13.98;;;4.28;;
44750;SDS011;30477;48.224;11.470;2022-10-30T13:11:50;19.48;;;4.10;;
44750;SDS011;30477;48.224;11.470;2022-10-30T13:16:55;11.98;;;3.75;;
44750;SDS011;30477;48.224;11.470;2022-10-30T13:19:20;14.97;;;4.20;;
44750;SDS011;30477;48.224;11.470;2022-10-30T13:21:54;22.10;;;4.80;;
44750;SDS011;30477;48.224;11.470;2022-10-30T13:27:35;17.35;;;4.10;;
44750;SDS011;30477;48.224;11.470;2022-10-30T13:30:07;15.70;;;4.30;;
44750;SDS011;30477;48.224;11.470;2022-10-30T13:32:58;9.70;;;3.90;;
44750;SDS011;30477;48.224;11.470;2022-10-30T13:41:14;21.80;;;4.97;;
44750;SDS011;30477;48.224;11.470;2022-10-30T13:43:46;16.20;;;4.60;;
44750;SDS011;30477;48.224;11.470;2022-10-30T13:46:24;13.32;;;4.78;;
44750;SDS011;30477;48.224;11.470;2022-10-30T13:51:41;17.23;;;4.10;;
44750;SDS011;30477;48.224;11.470;2022-10-30T13:57:22;15.63;;;4.35;;
44750;SDS011;30477;48.224;11.470;2022-10-30T13:59:54;14.95;;;3.97;;
44750;SDS011;30477;48.224;11.470;2022-10-30T14:10:48;13.60;;;3.70;;
44750;SDS011;30477;48.224;11.470;2022-10-30T14:13:20;21.55;;;4.03;;
44750;SDS011;30477;48.224;11.470;2022-10-30T14:16:05;15.48;;;4.35;;
44750;SDS011;30477;48.224;11.470;2022-10-30T14:18:58;14.52;;;4.03;;
44750;SDS011;30477;48.224;11.470;2022-10-30T14:24:26;23.52;;;4.20;;
44750;SDS011;30477;48.224;11.470;2022-10-30T14:27:07;15.25;;;3.90;;
44750;SDS011;30477;48.224;11.470;2022-10-30T14:29:43;13.05;;;4.15;;
44750;SDS011;30477;48.224;11.470;2022-10-30T14:34:43;19.55;;;4.60;;
44750;SDS011;30477;48.224;11.470;2022-10-30T14:37:10;18.67;;;4.30;;
44750;SDS011;30477;48.224;11.470;2022-10-30T14:39:39;17.95;;;5.20;;
44750;SDS011;30477;48.224;11.470;2022-10-30T14:42:18;15.35;;;4.72;;
44750;SDS011;30477;48.224;11.470;2022-10-30T14:50:51;19.23;;;5.53;;
44750;SDS011;30477;48.224;11.470;2022-10-30T14:53:33;17.25;;;5.40;;
44750;SDS011;30477;48.224;11.470;2022-10-30T14:59:21;17.35;;;5.30;;
44750;SDS011;30477;48.224;11.470;2022-10-30T15:05:06;17.52;;;5.70;;
44750;SDS011;30477;48.224;11.470;2022-10-30T15:07:49;16.88;;;5.47;;
44750;SDS011;30477;48.224;11.470;2022-10-30T15:10:29;15.88;;;5.43;;
44750;SDS011;30477;48.224;11.470;2022-10-30T15:13:12;18.40;;;5.25;;
44750;SDS011;30477;48.224;11.470;2022-10-30T15:15:42;19.90;;;5.03;;
44750;SDS011;30477;48.224;11.470;2022-10-30T15:18:14;13.48;;;5.00;;
44750;SDS011;30477;48.224;11.470;2022-10-30T15:20:42;16.23;;;5.10;;
44750;SDS011;30477;48.224;11.470;2022-10-30T15:23:21;13.35;;;4.95;;
44750;SDS011;30477;48.224;11.470;2022-10-30T15:25:52;17.63;;;5.30;;
44750;SDS011;30477;48.224;11.470;2022-10-30T15:28:19;18.05;;;5.57;;
44750;SDS011;30477;48.224;11.470;2022-10-30T15:33:30;18.08;;;5.82;;
44750;SDS011;30477;48.224;11.470;2022-10-30T15:35:59;22.30;;;5.95;;
44750;SDS011;30477;48.224;11.470;2022-10-30T15:38:25;17.98;;;5.35;;
44750;SDS011;30477;48.224;11.470;2022-10-30T15:40:54;14.60;;;5.35;;
44750;SDS011;30477;48.224;11.470;2022-10-30T15:43:23;13.75;;;5.00;;
44750;SDS011;30477;48.224;11.470;2022-10-30T15:45:53;16.70;;;5.28;;
44750;SDS011;30477;48.224;11.470;2022-10-30T15:50:51;21.17;;;5.33;;
44750;SDS011;30477;48.224;11.470;2022-10-30T15:53:19;17.40;;;5.70;;
44750;SDS011;30477;48.224;11.470;2022-10-30T15:55:48;24.17;;;8.43;;
44750;SDS011;30477;48.224;11.470;2022-10-30T15:58:16;27.65;;;11.02;;
44750;SDS011;30477;48.224;11.470;2022-10-30T16:00:58;18.27;;;9.85;;
44750;SDS011;30477;48.224;11.470;2022-10-30T16:03:25;26.10;;;11.48;;
44750;SDS011;30477;48.224;11.470;2022-10-30T16:06:02;22.05;;;10.90;;
44750;SDS011;30477;48.224;11.470;2022-10-30T16:08:28;18.60;;;9.18;;
44750;SDS011;30477;48.224;11.470;2022-10-30T16:10:54;16.90;;;8.00;;
44750;SDS011;30477;48.224;11.470;2022-10-30T16:13:27;15.15;;;5.75;;
44750;SDS011;30477;48.224;11.470;2022-10-30T16:15:54;23.13;;;5.93;;
44750;SDS011;30477;48.224;11.470;2022-10-30T16:18:27;13.95;;;5.80;;
44750;SDS011;30477;48.224;11.470;2022-10-30T16:20:56;16.30;;;4.88;;
44750;SDS011;30477;48.224;11.470;2022-10-30T16:23:27;16.50;;;5.32;;
44750;SDS011;30477;48.224;11.470;2022-10-30T16:25:54;14.48;;;5.00;;
44750;SDS011;30477;48.224;11.470;2022-10-30T16:28:23;23.02;;;6.47;;
44750;SDS011;30477;48.224;11.470;2022-10-30T16:30:51;21.00;;;5.28;;
44750;SDS011;30477;48.224;11.470;2022-10-30T16:33:19;18.02;;;5.90;;
44750;SDS011;30477;48.224;11.470;2022-10-30T16:35:49;20.38;;;6.78;;
44750;SDS011;30477;48.224;11.470;2022-10-30T16:38:16;26.05;;;8.55;;
44750;SDS011;30477;48.224;11.470;2022-10-30T16:43:08;25.42;;;10.45;;
44750;SDS011;30477;48.224;11.470;2022-10-30T16:48:38;23.02;;;8.80;;
44750;SDS011;30477;48.224;11.470;2022-10-30T16:51:11;24.30;;;11.00;;
44750;SDS011;30477;48.224;11.470;2022-10-30T16:53:39;25.08;;;13.35;;
44750;SDS011;30477;48.224;11.470;2022-10-30T16:56:23;29.55;;;11.93;;
44750;SDS011;30477;48.224;11.470;2022-10-30T16:58:55;24.77;;;10.82;;